Time;durP1;ratioP1;P1;durP2;ratioP2;P2;SDS_P1;SDS_P2;PMS_P1;PMS_P2;Temp;Humidity;BMP_temperature;BMP_pressure;BME280_temperature;BME280_humidity;BME280_pressure;Samples;Min_cycle;Max_cycle;Signal;HPM_P1;HPM_P2
2021/10/31 00:01:28;;;;;;;21.90;6.30;;;13.00;99.90;;;;;;4968176;28;20523;-87
2021/10/31 00:03:55;;;;;;;23.63;6.60;;;13.00;99.90;;;;;;4970717;28;20455;-87
2021/10/31 00:06:22;;;;;;;23.20;6.40;;;13.00;99.90;;;;;;4962391;28;20459;-85
2021/10/31 00:08:49;;;;;;;21.03;5.90;;;13.00;99.90;;;;;;4973556;28;20465;-86
2021/10/31 00:11:16;;;;;;;24.07;8.20;;;13.00;99.90;;;;;;4973459;28;20461;-86
2021/10/31 00:13:44;;;;;;;22.40;6.50;;;12.80;99.90;;;;;;4973847;28;20496;-85
2021/10/31 00:16:11;;;;;;;22.60;7.30;;;12.80;99.90;;;;;;4975040;28;20825;-84
2021/10/31 00:18:38;;;;;;;22.20;7.03;;;12.80;99.90;;;;;;4963270;28;20491;-85
2021/10/31 00:21:05;;;;;;;22.23;6.90;;;12.80;99.90;;;;;;4970766;28;20803;-86
2021/10/31 00:23:32;;;;;;;23.63;7.60;;;12.80;99.90;;;;;;4975885;28;20457;-85
2021/10/31 00:25:59;;;;;;;25.07;6.40;;;12.80;99.90;;;;;;4977514;28;20959;-86
2021/10/31 00:28:25;;;;;;;23.60;6.20;;;12.80;99.90;;;;;;4970234;28;20484;-86
2021/10/31 00:30:54;;;;;;;21.53;6.50;;;12.80;99.90;;;;;;4972676;28;20978;-85
2021/10/31 00:33:20;;;;;;;25.63;6.23;;;12.80;99.90;;;;;;4973050;28;20500;-86
2021/10/31 00:35:47;;;;;;;22.63;7.83;;;12.90;99.90;;;;;;4977380;28;20456;-85
2021/10/31 00:38:14;;;;;;;22.00;6.17;;;12.80;99.90;;;;;;4969188;28;20495;-86
2021/10/31 00:40:43;;;;;;;22.53;5.60;;;12.80;99.90;;;;;;4972932;28;20449;-84
2021/10/31 00:43:10;;;;;;;22.00;6.10;;;12.80;99.90;;;;;;4966772;28;20546;-85
2021/10/31 00:45:37;;;;;;;24.43;6.40;;;12.70;99.90;;;;;;4984376;28;20447;-86
2021/10/31 00:48:05;;;;;;;24.03;5.83;;;12.70;99.90;;;;;;4983999;28;20487;-85
2021/10/31 00:50:32;;;;;;;22.40;6.53;;;12.70;99.90;;;;;;4975857;28;20932;-87
2021/10/31 00:53:00;;;;;;;22.33;6.23;;;12.70;99.90;;;;;;4969585;28;20493;-85
2021/10/31 00:55:26;;;;;;;22.73;6.37;;;12.70;99.90;;;;;;4975287;28;20481;-83
2021/10/31 00:57:54;;;;;;;22.83;5.73;;;12.70;99.90;;;;;;4974843;28;20481;-83
2021/10/31 01:00:21;;;;;;;21.97;5.30;;;12.60;99.90;;;;;;4965744;28;20457;-83
2021/10/31 01:02:48;;;;;;;22.10;5.77;;;12.60;99.90;;;;;;4971147;28;20459;-83
2021/10/31 01:05:20;;;;;;;22.97;5.80;;;12.50;99.90;;;;;;4975868;28;20453;-85
2021/10/31 01:08:12;;;;;;;22.07;5.30;;;12.50;99.90;;;;;;4974491;28;20491;-84
2021/10/31 01:10:52;;;;;;;23.43;6.00;;;12.50;99.90;;;;;;4965148;28;20481;-84
2021/10/31 01:13:38;;;;;;;23.57;5.80;;;12.50;99.90;;;;;;4969639;28;20499;-83
2021/10/31 01:16:17;;;;;;;23.67;6.40;;;12.40;99.90;;;;;;4974012;28;20462;-83
2021/10/31 01:19:02;;;;;;;22.13;5.77;;;12.40;99.90;;;;;;4961985;28;20468;-83
2021/10/31 01:21:39;;;;;;;24.13;6.40;;;12.40;99.90;;;;;;4965809;28;20452;-83
2021/10/31 01:24:28;;;;;;;23.37;5.80;;;12.40;99.90;;;;;;4976542;28;20453;-83
2021/10/31 01:27:07;;;;;;;24.30;5.80;;;12.40;99.90;;;;;;4984109;28;21011;-83
2021/10/31 01:29:46;;;;;;;23.60;5.67;;;12.40;99.90;;;;;;4975054;28;20837;-83
2021/10/31 01:32:28;;;;;;;23.73;6.40;;;12.40;99.90;;;;;;4966133;28;20449;-83
2021/10/31 01:35:03;;;;;;;23.40;5.93;;;12.40;99.90;;;;;;4972567;28;20456;-83
2021/10/31 01:37:46;;;;;;;29.23;6.47;;;12.40;99.90;;;;;;4977044;28;20486;-84
2021/10/31 01:40:18;;;;;;;24.57;5.77;;;12.40;99.90;;;;;;4972338;28;20963;-84
2021/10/31 01:42:55;;;;;;;24.00;5.93;;;12.40;99.90;;;;;;4970214;28;20455;-84
2021/10/31 01:45:32;;;;;;;25.03;6.03;;;12.30;99.90;;;;;;4971137;28;20452;-84
2021/10/31 01:48:06;;;;;;;25.13;7.60;;;12.30;99.90;;;;;;4965616;28;20484;-85
2021/10/31 01:50:39;;;;;;;25.83;6.90;;;12.30;99.90;;;;;;4975899;28;20980;-86
2021/10/31 01:53:13;;;;;;;23.60;6.50;;;12.30;99.90;;;;;;4964930;28;20496;-85
2021/10/31 01:55:45;;;;;;;24.37;5.93;;;12.10;99.90;;;;;;4970153;28;20452;-85
2021/10/31 01:58:15;;;;;;;23.77;6.53;;;12.20;99.90;;;;;;4967878;28;20478;-85
2021/10/31 02:00:44;;;;;;;23.40;5.67;;;12.20;99.90;;;;;;4970542;28;20447;-85
2021/10/31 02:03:13;;;;;;;24.40;7.37;;;12.20;99.90;;;;;;4974014;28;20846;-86
2021/10/31 02:05:41;;;;;;;25.40;6.70;;;12.20;99.90;;;;;;4970146;28;20455;-85
2021/10/31 02:08:11;;;;;;;25.83;6.10;;;12.20;99.90;;;;;;4968653;28;21234;-86
2021/10/31 02:10:40;;;;;;;23.17;6.50;;;12.10;99.90;;;;;;4965571;28;20488;-85
2021/10/31 02:13:11;;;;;;;24.93;7.13;;;12.10;99.90;;;;;;4973020;28;20494;-85
2021/10/31 02:15:39;;;;;;;24.70;6.20;;;12.00;99.90;;;;;;4973492;28;20474;-85
2021/10/31 02:18:06;;;;;;;25.37;6.57;;;12.00;99.90;;;;;;4966321;28;20490;-85
2021/10/31 02:20:39;;;;;;;27.13;6.03;;;11.90;99.90;;;;;;4965334;28;20946;-85
2021/10/31 02:23:07;;;;;;;26.00;6.07;;;11.90;99.90;;;;;;4977724;28;20466;-85
2021/10/31 02:25:34;;;;;;;25.20;6.00;;;11.80;99.90;;;;;;4975692;28;20463;-85
2021/10/31 02:28:01;;;;;;;26.90;6.73;;;11.80;99.90;;;;;;4975389;28;20498;-85
2021/10/31 02:30:28;;;;;;;26.97;7.07;;;11.70;99.90;;;;;;4974635;28;20466;-85
2021/10/31 02:32:55;;;;;;;28.13;7.63;;;11.70;99.90;;;;;;4976063;28;20964;-85
2021/10/31 02:35:23;;;;;;;29.10;6.10;;;11.70;99.90;;;;;;4974930;28;20457;-85
2021/10/31 02:37:50;;;;;;;25.97;6.67;;;11.70;99.90;;;;;;4974833;28;20490;-85
2021/10/31 02:40:20;;;;;;;25.97;5.73;;;11.60;99.90;;;;;;4972106;28;20463;-86
2021/10/31 02:42:48;;;;;;;26.03;6.10;;;11.60;99.90;;;;;;4974293;28;20470;-86
2021/10/31 02:45:15;;;;;;;26.60;6.27;;;11.60;99.90;;;;;;4969281;28;20464;-85
2021/10/31 02:47:46;;;;;;;28.33;6.97;;;11.50;99.90;;;;;;4965900;28;20471;-85
2021/10/31 02:50:17;;;;;;;25.73;6.17;;;11.50;99.90;;;;;;4969826;28;20544;-85
2021/10/31 02:53:08;;;;;;;25.87;6.73;;;11.50;99.90;;;;;;4961748;28;20465;-85
2021/10/31 02:55:43;;;;;;;26.77;6.43;;;11.50;99.90;;;;;;4976044;28;20487;-85
2021/10/31 02:58:16;;;;;;;26.60;6.10;;;11.50;99.90;;;;;;4971461;28;20477;-86
2021/10/31 03:00:43;;;;;;;28.90;6.37;;;11.50;99.90;;;;;;4979866;28;20538;-85
2021/10/31 03:03:12;;;;;;;27.40;7.20;;;11.50;99.90;;;;;;4980035;28;20456;-85
2021/10/31 03:05:39;;;;;;;26.27;6.20;;;11.50;99.90;;;;;;4979962;28;20455;-85
2021/10/31 03:08:06;;;;;;;26.87;5.53;;;11.50;99.90;;;;;;4979536;28;20470;-84
2021/10/31 03:10:33;;;;;;;25.47;6.03;;;11.50;99.90;;;;;;4979132;28;20448;-84
2021/10/31 03:13:01;;;;;;;24.30;5.53;;;11.50;99.90;;;;;;4985383;28;20463;-84
2021/10/31 03:15:28;;;;;;;24.70;5.47;;;11.50;99.90;;;;;;4988273;28;20455;-85
2021/10/31 03:17:55;;;;;;;25.90;5.43;;;11.50;99.90;;;;;;4986737;28;20490;-84
2021/10/31 03:20:21;;;;;;;26.40;6.30;;;11.40;99.90;;;;;;4979070;28;20467;-85
2021/10/31 03:22:48;;;;;;;24.97;5.23;;;11.40;99.90;;;;;;4980581;28;20463;-85
2021/10/31 03:25:15;;;;;;;25.10;5.13;;;11.40;99.90;;;;;;4985872;28;20456;-85
2021/10/31 03:27:42;;;;;;;27.40;5.10;;;11.40;99.90;;;;;;4983921;28;20471;-85
2021/10/31 03:30:10;;;;;;;27.83;6.27;;;11.40;99.90;;;;;;4986120;28;20470;-86
2021/10/31 03:32:37;;;;;;;25.00;5.80;;;11.40;99.90;;;;;;4987252;28;20517;-85
2021/10/31 03:35:04;;;;;;;25.03;5.70;;;11.40;99.90;;;;;;4987519;28;20505;-86
2021/10/31 03:37:31;;;;;;;26.80;6.10;;;11.40;99.90;;;;;;4979335;28;20533;-85
2021/10/31 03:39:58;;;;;;;25.20;5.53;;;11.40;99.90;;;;;;4988351;28;20490;-85
2021/10/31 03:42:26;;;;;;;27.33;5.70;;;11.50;99.90;;;;;;4977550;28;20448;-86
2021/10/31 03:44:53;;;;;;;25.50;5.60;;;11.50;99.90;;;;;;4976836;28;20659;-84
2021/10/31 03:47:23;;;;;;;25.07;5.33;;;11.50;99.90;;;;;;4986897;28;20506;-84
2021/10/31 03:49:50;;;;;;;24.80;5.17;;;11.50;99.90;;;;;;4984998;28;20546;-85
2021/10/31 03:52:17;;;;;;;27.47;5.33;;;11.50;99.90;;;;;;4988554;28;20478;-84
2021/10/31 03:54:44;;;;;;;26.40;5.40;;;11.50;99.90;;;;;;4989353;28;20570;-85
2021/10/31 03:57:11;;;;;;;24.53;4.63;;;11.50;99.90;;;;;;4991022;28;20486;-84
2021/10/31 03:59:38;;;;;;;25.60;5.60;;;11.50;99.90;;;;;;4993030;28;20526;-85
2021/10/31 04:02:05;;;;;;;25.40;5.40;;;11.50;99.90;;;;;;4992005;28;20516;-86
2021/10/31 04:04:34;;;;;;;25.50;5.10;;;11.60;99.90;;;;;;4996861;28;20475;-85
2021/10/31 04:07:01;;;;;;;27.90;5.30;;;11.60;99.90;;;;;;4989665;28;20521;-85
2021/10/31 04:09:28;;;;;;;25.07;5.10;;;11.60;99.90;;;;;;4975890;28;20523;-85
2021/10/31 04:11:55;;;;;;;25.13;5.73;;;11.60;99.90;;;;;;4973064;28;20459;-85
2021/10/31 04:14:21;;;;;;;24.27;4.93;;;11.60;99.90;;;;;;4962688;28;20491;-85
2021/10/31 04:16:49;;;;;;;23.60;5.03;;;11.60;99.90;;;;;;4976032;28;20890;-85
2021/10/31 04:19:15;;;;;;;23.70;5.10;;;11.60;99.90;;;;;;4964850;28;20458;-84
2021/10/31 04:21:43;;;;;;;25.67;5.43;;;11.60;99.90;;;;;;4975994;28;20459;-83
2021/10/31 04:24:10;;;;;;;22.70;4.13;;;11.60;99.90;;;;;;4979129;28;20456;-83
2021/10/31 04:26:37;;;;;;;23.70;4.57;;;11.60;99.90;;;;;;4978955;28;20923;-83
2021/10/31 04:29:04;;;;;;;25.13;5.30;;;11.60;99.90;;;;;;4979214;28;20543;-83
2021/10/31 04:31:31;;;;;;;23.70;4.53;;;11.60;99.90;;;;;;4978634;28;20462;-84
2021/10/31 04:33:57;;;;;;;24.30;4.53;;;11.60;99.90;;;;;;4977255;28;20572;-85
2021/10/31 04:36:24;;;;;;;24.30;4.70;;;11.70;99.90;;;;;;4978107;28;20473;-84
2021/10/31 04:38:55;;;;;;;23.90;4.40;;;11.70;99.90;;;;;;4979067;28;20460;-84
2021/10/31 04:41:23;;;;;;;22.00;3.67;;;11.70;99.90;;;;;;4978284;28;20456;-84
2021/10/31 04:43:50;;;;;;;23.10;5.00;;;11.70;99.90;;;;;;4978268;28;20538;-85
2021/10/31 04:46:17;;;;;;;23.83;5.10;;;11.70;99.90;;;;;;4978188;28;20531;-85
2021/10/31 04:48:44;;;;;;;23.03;5.10;;;11.70;99.90;;;;;;4978380;28;20452;-83
2021/10/31 04:51:11;;;;;;;22.90;4.57;;;11.70;99.90;;;;;;4973552;28;20464;-84
2021/10/31 04:53:38;;;;;;;23.97;4.67;;;11.70;99.90;;;;;;4975605;28;20492;-84
2021/10/31 04:56:06;;;;;;;25.00;4.70;;;11.70;99.90;;;;;;4978817;28;20470;-85
2021/10/31 04:58:33;;;;;;;23.30;4.20;;;11.70;99.90;;;;;;4977468;28;20484;-85
2021/10/31 05:01:00;;;;;;;23.77;4.37;;;11.70;99.90;;;;;;4976891;28;20456;-85
2021/10/31 05:03:28;;;;;;;24.63;4.70;;;11.60;99.90;;;;;;4978673;28;21213;-84
2021/10/31 05:05:54;;;;;;;22.43;4.00;;;11.60;99.90;;;;;;4976982;28;20465;-85
2021/10/31 05:08:21;;;;;;;21.60;3.53;;;11.60;99.90;;;;;;4977613;28;20534;-84
2021/10/31 05:10:48;;;;;;;23.77;3.90;;;11.60;99.90;;;;;;4977713;28;20463;-84
2021/10/31 05:13:16;;;;;;;25.40;4.73;;;11.60;99.90;;;;;;4958447;28;20461;-84
2021/10/31 05:15:43;;;;;;;28.17;4.70;;;11.50;99.90;;;;;;4972880;28;20587;-84
2021/10/31 05:18:10;;;;;;;26.10;4.60;;;11.50;99.90;;;;;;4973228;28;20926;-84
2021/10/31 05:20:37;;;;;;;24.13;4.90;;;11.50;99.90;;;;;;4978489;28;20493;-84
2021/10/31 05:23:04;;;;;;;25.20;4.50;;;11.50;99.90;;;;;;4981241;28;20457;-84
2021/10/31 05:25:31;;;;;;;25.10;5.40;;;11.40;99.90;;;;;;4981433;28;20454;-84
2021/10/31 05:27:58;;;;;;;25.17;5.50;;;11.40;99.90;;;;;;4976951;28;20491;-84
2021/10/31 05:30:26;;;;;;;24.33;4.90;;;11.40;99.90;;;;;;4975270;28;20448;-84
2021/10/31 05:32:53;;;;;;;23.30;4.73;;;11.40;99.90;;;;;;4976288;28;20461;-83
2021/10/31 05:35:20;;;;;;;25.03;5.30;;;11.40;99.90;;;;;;4981858;28;20537;-84
2021/10/31 05:37:48;;;;;;;23.30;4.90;;;11.40;99.90;;;;;;4977239;28;20480;-84
2021/10/31 05:40:17;;;;;;;23.83;4.60;;;11.40;99.90;;;;;;4975115;28;20462;-85
2021/10/31 05:42:44;;;;;;;25.03;5.77;;;11.40;99.90;;;;;;4971895;28;20461;-84
2021/10/31 05:45:12;;;;;;;26.87;7.20;;;11.40;99.90;;;;;;4973611;28;20834;-84
2021/10/31 05:47:43;;;;;;;23.90;5.97;;;11.40;99.90;;;;;;4975581;28;20551;-84
2021/10/31 05:50:12;;;;;;;26.80;6.80;;;11.40;99.90;;;;;;4973872;28;21169;-84
2021/10/31 05:52:40;;;;;;;28.03;6.73;;;11.40;99.90;;;;;;4976254;28;20465;-84
2021/10/31 05:55:08;;;;;;;27.03;6.90;;;11.40;99.90;;;;;;4974701;28;20586;-84
2021/10/31 05:57:35;;;;;;;25.00;6.27;;;11.40;99.90;;;;;;4974749;28;20486;-84
2021/10/31 06:00:06;;;;;;;28.20;6.60;;;11.40;99.90;;;;;;4975122;28;20470;-84
2021/10/31 06:02:33;;;;;;;26.13;6.00;;;11.30;99.90;;;;;;4975257;28;20495;-84
2021/10/31 06:05:02;;;;;;;27.60;6.20;;;11.40;99.90;;;;;;4976871;28;20975;-84
2021/10/31 06:07:29;;;;;;;26.53;7.03;;;11.40;99.90;;;;;;4976391;28;20642;-84
2021/10/31 06:09:56;;;;;;;26.20;6.80;;;11.40;99.90;;;;;;4975260;28;20459;-84
2021/10/31 06:12:24;;;;;;;25.23;6.93;;;11.40;99.90;;;;;;4975232;28;20474;-84
2021/10/31 06:14:51;;;;;;;26.87;7.40;;;11.40;99.90;;;;;;4975408;28;20484;-84
2021/10/31 06:17:18;;;;;;;24.00;6.40;;;11.40;99.90;;;;;;4972325;28;20493;-85
2021/10/31 06:19:45;;;;;;;24.73;6.47;;;11.40;99.90;;;;;;4974819;28;20502;-85
2021/10/31 06:22:13;;;;;;;23.50;5.83;;;11.40;99.90;;;;;;4970561;28;20464;-86
2021/10/31 06:24:43;;;;;;;22.37;5.93;;;11.40;99.90;;;;;;4975088;28;20453;-84
2021/10/31 06:27:10;;;;;;;21.30;4.63;;;11.40;99.90;;;;;;4975385;28;20469;-85
2021/10/31 06:29:37;;;;;;;22.17;5.87;;;11.40;99.90;;;;;;4974009;28;20459;-84
2021/10/31 06:32:04;;;;;;;24.60;6.27;;;11.50;99.90;;;;;;4973777;28;20899;-84
2021/10/31 06:34:31;;;;;;;23.83;6.10;;;11.50;99.90;;;;;;4973221;28;20501;-84
2021/10/31 06:36:57;;;;;;;23.17;5.10;;;11.50;99.90;;;;;;4973417;28;20503;-87
2021/10/31 06:39:26;;;;;;;21.90;5.00;;;11.50;99.90;;;;;;4975678;28;20851;-85
2021/10/31 06:41:52;;;;;;;22.90;5.43;;;11.50;99.90;;;;;;4972342;28;20462;-84
2021/10/31 06:44:19;;;;;;;22.47;5.63;;;11.50;99.90;;;;;;4971194;28;20943;-84
2021/10/31 06:46:46;;;;;;;20.00;1.73;;;11.50;99.90;;;;;;4978160;28;20574;-83
2021/10/31 06:49:13;;;;;;;21.27;3.37;;;11.90;99.90;;;;;;5000232;28;20549;-84
2021/10/31 06:51:40;;;;;;;22.87;4.77;;;12.50;99.90;;;;;;4991481;28;20517;-84
2021/10/31 06:54:07;;;;;;;23.50;4.17;;;12.50;99.90;;;;;;4992551;28;20483;-84
2021/10/31 06:56:35;;;;;;;23.67;4.77;;;12.80;99.90;;;;;;5024677;28;20528;-83
2021/10/31 06:59:02;;;;;;;26.23;4.60;;;12.90;99.90;;;;;;4989524;28;20465;-83
2021/10/31 07:01:29;;;;;;;24.50;4.90;;;12.90;99.90;;;;;;4979317;28;20887;-85
2021/10/31 07:03:56;;;;;;;24.20;4.50;;;13.00;99.90;;;;;;4997682;28;20473;-82
2021/10/31 07:06:23;;;;;;;25.83;4.93;;;13.20;99.90;;;;;;4989520;28;20527;-83
2021/10/31 07:08:49;;;;;;;23.97;3.80;;;13.20;99.90;;;;;;4971840;28;20939;-83
2021/10/31 07:11:16;;;;;;;26.53;5.07;;;13.20;99.90;;;;;;4971323;28;20525;-83
2021/10/31 07:13:44;;;;;;;25.07;4.80;;;13.10;99.90;;;;;;4976693;28;20463;-82
2021/10/31 07:16:11;;;;;;;24.20;5.77;;;13.00;99.90;;;;;;4976086;28;20509;-83
2021/10/31 07:18:38;;;;;;;25.30;5.03;;;12.90;99.90;;;;;;4973326;28;20491;-84
2021/10/31 07:21:05;;;;;;;24.43;5.60;;;12.80;99.90;;;;;;4975729;28;20469;-82
2021/10/31 07:23:32;;;;;;;26.03;5.70;;;12.80;99.90;;;;;;4968832;28;20478;-84
2021/10/31 07:25:59;;;;;;;21.80;4.60;;;12.70;99.90;;;;;;4969284;28;20464;-83
2021/10/31 07:28:26;;;;;;;25.60;5.30;;;12.70;99.90;;;;;;4968385;28;20479;-84
2021/10/31 07:30:57;;;;;;;26.73;4.93;;;12.60;99.90;;;;;;4976419;28;20473;-84
2021/10/31 07:33:24;;;;;;;27.27;4.90;;;12.50;99.90;;;;;;4977497;28;20454;-83
2021/10/31 07:35:51;;;;;;;26.10;4.53;;;12.50;99.90;;;;;;4982770;28;20498;-84
2021/10/31 07:38:18;;;;;;;26.27;4.43;;;12.50;99.90;;;;;;4980021;28;20482;-83
2021/10/31 07:40:45;;;;;;;28.77;4.73;;;12.50;99.90;;;;;;4964212;28;20547;-83
2021/10/31 07:43:12;;;;;;;27.83;3.60;;;12.50;99.90;;;;;;4971992;28;20467;-84
2021/10/31 07:45:40;;;;;;;25.10;3.70;;;12.50;99.90;;;;;;4972328;28;20465;-85
2021/10/31 07:48:08;;;;;;;25.53;3.87;;;12.60;99.90;;;;;;4982369;28;20483;-83
2021/10/31 07:50:36;;;;;;;26.80;4.27;;;12.60;99.90;;;;;;4980885;28;20538;-80
2021/10/31 07:53:03;;;;;;;26.23;4.03;;;12.60;99.90;;;;;;4985203;28;20465;-84
2021/10/31 07:55:32;;;;;;;23.93;3.03;;;12.60;99.90;;;;;;4980516;28;20576;-84
2021/10/31 07:58:00;;;;;;;25.23;3.23;;;12.60;99.90;;;;;;4979826;28;20568;-84
2021/10/31 08:00:27;;;;;;;26.40;3.97;;;12.60;99.90;;;;;;4975486;28;20951;-83
2021/10/31 08:02:54;;;;;;;24.77;4.17;;;12.60;99.90;;;;;;4979817;28;20460;-84
2021/10/31 08:05:22;;;;;;;23.50;3.30;;;12.50;99.90;;;;;;4980546;28;20463;-85
2021/10/31 08:07:49;;;;;;;25.37;2.97;;;12.50;99.90;;;;;;4979171;28;20475;-84
2021/10/31 08:10:16;;;;;;;23.97;2.90;;;12.50;99.90;;;;;;4978933;28;20847;-84
2021/10/31 08:12:43;;;;;;;24.33;2.87;;;12.60;99.90;;;;;;4975464;28;20467;-84
2021/10/31 08:15:10;;;;;;;25.00;3.20;;;12.50;99.90;;;;;;4971981;28;20580;-84
2021/10/31 08:17:38;;;;;;;22.50;2.33;;;12.60;99.90;;;;;;4969082;28;20489;-84
2021/10/31 08:20:05;;;;;;;22.80;3.13;;;12.70;99.90;;;;;;4977414;28;20464;-84
2021/10/31 08:22:34;;;;;;;22.20;2.73;;;12.70;99.90;;;;;;4980282;28;20463;-85
2021/10/31 08:25:01;;;;;;;21.63;2.73;;;12.80;99.90;;;;;;4979203;28;20455;-84
2021/10/31 08:27:29;;;;;;;21.20;2.07;;;13.00;99.90;;;;;;4979062;28;20504;-84
2021/10/31 08:29:55;;;;;;;20.90;2.90;;;13.00;99.90;;;;;;4979008;28;20458;-84
2021/10/31 08:32:25;;;;;;;22.90;2.40;;;13.00;99.90;;;;;;4976865;28;20477;-84
2021/10/31 08:34:51;;;;;;;22.90;2.07;;;13.20;99.90;;;;;;4977664;28;20568;-84
2021/10/31 08:37:18;;;;;;;23.57;1.97;;;13.30;99.90;;;;;;4979016;28;20594;-84
2021/10/31 08:39:46;;;;;;;22.93;2.13;;;13.40;99.90;;;;;;4976283;28;20552;-83
2021/10/31 08:42:23;;;;;;;23.83;2.00;;;13.50;99.90;;;;;;4976211;28;20461;-81
2021/10/31 08:44:55;;;;;;;24.77;1.90;;;13.60;99.90;;;;;;4976219;28;20500;-85
2021/10/31 08:47:23;;;;;;;24.87;1.83;;;13.80;99.90;;;;;;4977186;28;20475;-83
2021/10/31 08:49:50;;;;;;;25.03;1.80;;;13.90;99.90;;;;;;4985558;28;20453;-84
2021/10/31 08:52:17;;;;;;;24.60;2.03;;;13.90;99.90;;;;;;5005750;28;20461;-83
2021/10/31 08:54:45;;;;;;;25.47;2.07;;;14.00;99.90;;;;;;5022549;28;20448;-86
2021/10/31 08:57:12;;;;;;;25.60;1.57;;;14.00;99.90;;;;;;4978557;28;20859;-86
2021/10/31 08:59:39;;;;;;;27.30;1.60;;;14.00;99.90;;;;;;4978788;28;20462;-86
2021/10/31 09:02:06;;;;;;;25.13;1.83;;;14.20;99.90;;;;;;4970817;28;20541;-85
2021/10/31 09:04:34;;;;;;;23.47;1.40;;;14.30;99.90;;;;;;4971552;28;20463;-85
2021/10/31 09:07:01;;;;;;;26.20;1.90;;;14.30;99.90;;;;;;4994014;28;20514;-85
2021/10/31 09:09:28;;;;;;;26.00;1.80;;;14.40;99.90;;;;;;4979119;28;20527;-86
2021/10/31 09:11:56;;;;;;;25.50;1.30;;;14.50;99.90;;;;;;4979825;28;20449;-86
2021/10/31 09:14:23;;;;;;;26.20;1.43;;;14.70;99.90;;;;;;4971965;28;20460;-87
2021/10/31 09:16:50;;;;;;;26.70;1.40;;;14.90;99.90;;;;;;4974174;28;20484;-86
2021/10/31 09:19:18;;;;;;;25.93;1.70;;;15.00;99.90;;;;;;4977818;28;20447;-88
2021/10/31 09:21:46;;;;;;;23.80;1.30;;;15.10;99.90;;;;;;4975821;28;20467;-86
2021/10/31 09:24:14;;;;;;;23.13;1.40;;;15.30;99.90;;;;;;4973361;28;20462;-86
2021/10/31 09:26:41;;;;;;;24.07;1.30;;;15.40;99.90;;;;;;4975404;28;20536;-87
2021/10/31 09:29:09;;;;;;;26.87;1.60;;;15.40;99.90;;;;;;4974842;28;20542;-87
2021/10/31 09:31:37;;;;;;;25.20;1.37;;;15.50;99.90;;;;;;4978483;28;20485;-87
2021/10/31 09:34:04;;;;;;;25.43;1.67;;;15.60;99.90;;;;;;4978226;28;20464;-87
2021/10/31 09:36:34;;;;;;;26.67;1.40;;;15.60;99.90;;;;;;4978017;28;20587;-86
2021/10/31 09:39:02;;;;;;;26.90;1.33;;;15.70;99.90;;;;;;4978994;28;20531;-87
2021/10/31 09:41:31;;;;;;;27.30;1.70;;;15.80;99.90;;;;;;4966576;28;20463;-86
2021/10/31 09:44:09;;;;;;;28.10;1.30;;;15.90;99.90;;;;;;4964197;28;20454;-86
2021/10/31 09:46:39;;;;;;;28.20;1.80;;;16.00;99.90;;;;;;4975254;28;20463;-86
2021/10/31 09:49:06;;;;;;;26.33;1.60;;;16.10;99.90;;;;;;4974128;28;20590;-85
2021/10/31 09:51:33;;;;;;;27.30;1.50;;;16.20;99.90;;;;;;4975812;28;20879;-85
2021/10/31 09:54:00;;;;;;;27.80;1.30;;;16.30;99.90;;;;;;4975613;28;20451;-86
2021/10/31 09:56:27;;;;;;;28.00;2.70;;;16.40;99.90;;;;;;4975009;28;20866;-86
2021/10/31 09:58:58;;;;;;;39.03;2.03;;;16.60;99.90;;;;;;4974084;28;20456;-86
2021/10/31 10:01:50;;;;;;;27.40;1.23;;;16.70;99.90;;;;;;4974757;28;20836;-86
2021/10/31 10:04:26;;;;;;;29.70;1.53;;;17.00;99.90;;;;;;4970203;28;20511;-85
2021/10/31 10:06:54;;;;;;;29.37;1.83;;;17.50;99.90;;;;;;4974550;28;20975;-86
2021/10/31 10:09:21;;;;;;;21.47;1.33;;;17.40;99.90;;;;;;4962104;28;20862;-85
2021/10/31 10:11:49;;;;;;;24.00;1.93;;;17.80;99.90;;;;;;4967572;28;20464;-82
2021/10/31 10:14:23;;;;;;;25.80;6.73;;;18.00;99.90;;;;;;4967977;28;20558;-82
2021/10/31 10:16:50;;;;;;;22.23;1.30;;;;;;;;;;4964095;28;20560;-84
2021/10/31 10:19:18;;;;;;;17.50;2.00;;;;;;;;;;4978352;28;20451;-86
2021/10/31 10:21:52;;;;;;;19.50;1.60;;;;;;;;;;4976544;28;20570;-86
2021/10/31 10:24:22;;;;;;;30.60;2.90;;;;;;;;;;4973106;28;21102;-85
2021/10/31 10:26:49;;;;;;;18.90;1.67;;;;;;;;;;4978266;28;20233;-86
2021/10/31 10:29:18;;;;;;;18.30;1.77;;;;;;;;;;4974085;28;20835;-85
2021/10/31 10:31:46;;;;;;;19.93;1.90;;;;;;;;;;4962056;28;20468;-86
2021/10/31 10:34:14;;;;;;;16.10;2.00;;;;;;;;;;4973984;28;20461;-87
2021/10/31 10:36:42;;;;;;;19.80;1.90;;;;;;;;;;4963037;28;20494;-85
2021/10/31 10:39:12;;;;;;;19.63;2.33;;;;;;;;;;4975451;28;20995;-85
2021/10/31 10:41:40;;;;;;;19.20;2.40;;;;;;;;;;4976682;28;20460;-86
2021/10/31 10:44:21;;;;;;;20.50;2.00;;;;;;;;;;4977343;28;20467;-86
2021/10/31 10:46:48;;;;;;;19.37;1.93;;;;;;;;;;4962443;28;20472;-85
2021/10/31 10:49:17;;;;;;;21.40;2.00;;;;;;;;;;4975331;28;20477;-86
2021/10/31 10:51:45;;;;;;;21.53;1.80;;;;;;;;;;4973718;28;20461;-86
2021/10/31 10:54:14;;;;;;;20.80;1.57;;;;;;;;;;4972112;28;20965;-86
2021/10/31 10:56:56;;;;;;;20.77;1.43;;;;;;;;;;4972127;28;20864;-86
2021/10/31 10:59:24;;;;;;;20.40;1.70;;;;;;;;;;4971897;28;20527;-86
2021/10/31 11:02:07;;;;;;;17.73;1.50;;;;;;;;;;4962553;28;20462;-87
2021/10/31 11:04:35;;;;;;;18.80;2.03;;;;;;;;;;4958037;28;20452;-86
2021/10/31 11:07:02;;;;;;;18.37;1.83;;;;;;;;;;4966757;28;21003;-86
2021/10/31 11:09:36;;;;;;;16.73;1.20;;;;;;;;;;4961946;28;20459;-86
2021/10/31 11:12:21;;;;;;;17.43;2.00;;;;;;;;;;4973240;28;20846;-86
2021/10/31 11:14:49;;;;;;;15.67;1.70;;;;;;;;;;4974478;28;20980;-85
2021/10/31 11:17:18;;;;;;;17.10;2.23;;;;;;;;;;4969674;28;20492;-85
2021/10/31 11:19:45;;;;;;;15.83;1.60;;;;;;;;;;4978970;28;20494;-85
2021/10/31 11:22:13;;;;;;;16.40;1.90;;;;;;;;;;4977985;28;20462;-83
2021/10/31 11:24:42;;;;;;;15.93;1.63;;;;;;;;;;4977134;28;20443;-84
2021/10/31 11:27:10;;;;;;;15.03;1.57;;;;;;;;;;4974875;28;20471;-83
2021/10/31 11:29:37;;;;;;;15.70;1.70;;;;;;;;;;4969053;28;20462;-83
2021/10/31 11:32:05;;;;;;;15.23;1.80;;;;;;;;;;4962593;28;20466;-83
2021/10/31 11:34:33;;;;;;;15.37;1.60;;;;;;;;;;4965570;28;20458;-84
2021/10/31 11:37:00;;;;;;;13.87;1.23;;;;;;;;;;4979261;28;20495;-84
2021/10/31 11:39:27;;;;;;;14.10;1.40;;;;;;;;;;4970492;28;20462;-85
2021/10/31 11:41:58;;;;;;;13.93;1.33;;;;;;;;;;4953998;28;20843;-85
2021/10/31 11:44:29;;;;;;;14.83;1.40;;;;;;;;;;4963121;28;20447;-85
2021/10/31 11:46:56;;;;;;;14.70;1.50;;;;;;;;;;4973305;28;20475;-85
2021/10/31 11:49:23;;;;;;;14.70;1.60;;;;;;;;;;4971757;28;20873;-84
2021/10/31 11:51:54;;;;;;;14.17;1.27;;;;;;;;;;4972244;28;20492;-85
2021/10/31 11:54:21;;;;;;;15.43;1.67;;;;;;;;;;4973851;28;20466;-84
2021/10/31 11:56:52;;;;;;;15.70;1.77;;;;;;;;;;4966354;28;21075;-85
2021/10/31 11:59:20;;;;;;;17.60;3.00;;;;;;;;;;4973745;28;20495;-85
2021/10/31 12:01:48;;;;;;;18.90;1.60;;;;;;;;;;4972774;28;20471;-84
2021/10/31 12:04:34;;;;;;;17.20;1.73;;;;;;;;;;4973984;28;20491;-87
2021/10/31 12:07:09;;;;;;;17.97;1.50;;;;;;;;;;4973726;28;20468;-85
2021/10/31 12:09:37;;;;;;;18.30;1.70;;;;;;;;;;4970261;28;20498;-85
2021/10/31 12:12:21;;;;;;;18.70;1.90;;;;;;;;;;4956621;28;20471;-86
2021/10/31 12:14:54;;;;;;;19.30;1.80;;;;;;;;;;4969157;28;20455;-85
2021/10/31 12:17:22;;;;;;;16.40;1.57;;;;;;;;;;4962648;28;20503;-85
2021/10/31 12:19:50;;;;;;;15.60;2.57;;;;;;;;;;4981514;28;20963;-84
2021/10/31 12:22:19;;;;;;;18.23;2.70;;;;;;;;;;4952088;28;20967;-84
2021/10/31 12:24:47;;;;;;;22.00;1.57;;;;;;;;;;4966377;28;20488;-85
2021/10/31 12:27:15;;;;;;;17.57;1.60;;;;;;;;;;4974135;28;20483;-86
2021/10/31 12:29:59;;;;;;;16.47;1.80;;;;;;;;;;4974405;28;20464;-83
2021/10/31 12:32:30;;;;;;;18.63;1.70;;;;;;;;;;4968689;28;20455;-85
2021/10/31 12:34:57;;;;;;;16.60;1.83;;;;;;;;;;4974481;28;20463;-84
2021/10/31 12:37:26;;;;;;;19.03;1.60;;;;;;;;;;4971507;28;20503;-86
2021/10/31 12:39:54;;;;;;;19.80;1.80;;;;;;;;;;4974726;28;20506;-85
2021/10/31 12:42:23;;;;;;;17.57;2.37;;;;;;;;;;4967094;28;20452;-86
2021/10/31 12:44:52;;;;;;;16.23;1.80;;;;;;;;;;4978084;28;20452;-85
2021/10/31 12:47:23;;;;;;;17.60;1.90;;;;;;;;;;4966619;28;20507;-86
2021/10/31 12:49:52;;;;;;;13.97;1.40;;;;;;;;;;4973253;28;20464;-86
2021/10/31 12:52:21;;;;;;;21.00;2.10;;;;;;;;;;4975370;28;20459;-85
2021/10/31 12:54:55;;;;;;;21.90;1.80;;;;;;;;;;4973599;28;20467;-87
2021/10/31 12:57:23;;;;;;;17.83;1.80;;;;;;;;;;4984379;28;20501;-85
2021/10/31 12:59:51;;;;;;;22.03;1.83;;;;;;;;;;4983137;28;20976;-86
2021/10/31 13:02:22;;;;;;;19.07;1.53;;;;;;;;;;4974324;28;20455;-85
2021/10/31 13:04:55;;;;;;;17.67;1.70;;;;;;;;;;4980109;28;20470;-84
2021/10/31 13:07:26;;;;;;;17.47;1.70;;;;;;;;;;4974397;28;20499;-86
2021/10/31 13:09:56;;;;;;;17.90;1.60;;;;;;;;;;4974897;28;20454;-85